Latest Weather Observations for St Kilda Harbour RMYS

IDV60801

Issued at 5:42 am EDT Monday 9 December 2019 (issued every 10 minutes, with the page automatically refreshed every 10 minutes)

About weather observations | Map of weather stations | Latest weather observations for VIC | Other Formats
Station Details ID: 086220 Name: ST KILDA HARBOUR - RMYS Lat: -37.86 Lon: 144.96 Height: 6.4 m
Data from the previous 72 hours. | See also: Recent months at St Kilda Harbour RMYS
Date/Time
EDT
Temp
°C
App
Temp
°C
Dew
Point
°C
Rel
Hum
%
Delta-T
°C
Wind Press
QNH
hPa
Press
MSL
hPa
Rain since
9am
mm
Dir  Spd
km/h
Gust
km/h
Spd
kts
Gust
kts
09/05:30am - - - - - NNE 17 24 9 13 - - -
09/05:00am - - - - - NNE 19 26 10 14 - - -
09/04:30am - - - - - NNE 17 22 9 12 - - -
09/04:00am - - - - - NNE 9 15 5 8 - - -
09/03:30am - - - - - NNE 4 6 2 3 - - -
09/03:00am - - - - - NE 6 9 3 5 - - -
09/02:30am - - - - - NNE 2 2 1 1 - - -
09/02:00am - - - - - ENE 2 4 1 2 - - -
09/01:30am - - - - - NE 4 4 2 2 - - -
09/01:00am - - - - - NNW 2 4 1 2 - - -
09/12:30am - - - - - NW 9 11 5 6 - - -
09/12:00am - - - - - WNW 11 11 6 6 - - -
 
Date/Time
EDT
Temp
°C
App
Temp
°C
Dew
Point
°C
Rel
Hum
%
Delta-T
°C
Wind Press
QNH
hPa
Press
MSL
hPa
Rain since
9am
mm
Dir  Spd
km/h
Gust
km/h
Spd
kts
Gust
kts
08/11:30pm - - - - - NNW 9 13 5 7 - - -
08/11:00pm - - - - - NE 4 4 2 2 - - -
08/10:30pm - - - - - ENE 6 7 3 4 - - -
08/10:00pm - - - - - ESE 6 13 3 7 - - -
08/09:30pm - - - - - SE 9 13 5 7 - - -
08/09:00pm - - - - - SSE 13 17 7 9 - - -
08/08:30pm - - - - - SSE 13 17 7 9 - - -
08/08:00pm - - - - - SE 15 19 8 10 - - -
08/07:30pm - - - - - SSE 19 24 10 13 - - -
08/07:00pm - - - - - S 22 26 12 14 - - -
08/06:30pm - - - - - S 19 22 10 12 - - -
08/06:00pm - - - - - S 19 22 10 12 - - -
08/05:30pm - - - - - S 20 24 11 13 - - -
08/05:00pm - - - - - S 26 30 14 16 - - -
08/04:30pm - - - - - S 24 28 13 15 - - -
08/04:00pm - - - - - S 28 32 15 17 - - -
08/03:30pm - - - - - S 28 30 15 16 - - -
08/03:00pm - - - - - SSW 22 24 12 13 - - -
08/02:30pm - - - - - SSW 22 26 12 14 - - -
08/02:00pm - - - - - SSW 22 26 12 14 - - -
08/01:30pm - - - - - SSW 22 26 12 14 - - -
08/01:00pm - - - - - SSW 19 20 10 11 - - -
08/12:30pm - - - - - SW 19 22 10 12 - - -
08/12:00pm - - - - - SW 19 22 10 12 - - -
08/11:30am - - - - - SW 17 20 9 11 - - -
08/11:00am - - - - - SSW 13 19 7 10 - - -
08/10:30am - - - - - SSW 17 20 9 11 - - -
08/10:00am - - - - - SSW 13 17 7 9 - - -
08/09:30am - - - - - SSW 15 17 8 9 - - -
08/09:00am - - - - - S 9 15 5 8 - - -
08/08:30am - - - - - SSE 7 13 4 7 - - -
08/08:00am - - - - - ESE 7 11 4 6 - - -
08/07:30am - - - - - ESE 9 13 5 7 - - -
08/07:00am - - - - - ESE 11 15 6 8 - - -
08/06:30am - - - - - ENE 9 13 5 7 - - -
08/06:00am - - - - - ESE 6 7 3 4 - - -
08/05:30am - - - - - ESE 11 15 6 8 - - -
08/05:00am - - - - - SE 9 13 5 7 - - -
08/04:30am - - - - - SSE 11 17 6 9 - - -
08/04:00am - - - - - S 11 19 6 10 - - -
08/03:30am - - - - - S 15 20 8 11 - - -
08/03:00am - - - - - SSW 15 20 8 11 - - -
08/02:30am - - - - - SSW 15 19 8 10 - - -
08/02:00am - - - - - SSW 13 17 7 9 - - -
08/01:30am - - - - - SSW 15 19 8 10 - - -
08/01:00am - - - - - S 13 17 7 9 - - -
08/12:30am - - - - - SSW 11 13 6 7 - - -
08/12:00am - - - - - SSW 13 17 7 9 - - -
 
Date/Time
EDT
Temp
°C
App
Temp
°C
Dew
Point
°C
Rel
Hum
%
Delta-T
°C
Wind Press
QNH
hPa
Press
MSL
hPa
Rain since
9am
mm
Dir  Spd
km/h
Gust
km/h
Spd
kts
Gust
kts
07/11:30pm - - - - - S 9 13 5 7 - - -
07/11:00pm - - - - - S 13 17 7 9 - - -
07/10:30pm - - - - - S 15 19 8 10 - - -
07/10:00pm - - - - - S 22 26 12 14 - - -
07/09:30pm - - - - - S 24 30 13 16 - - -
07/09:00pm - - - - - S 30 35 16 19 - - -
07/08:30pm - - - - - S 32 37 17 20 - - -
07/08:00pm - - - - - S 35 43 19 23 - - -
07/07:30pm - - - - - S 37 43 20 23 - - -
07/07:00pm - - - - - S 37 44 20 24 - - -
07/06:30pm - - - - - S 35 43 19 23 - - -
07/06:00pm - - - - - S 37 43 20 23 - - -
07/05:30pm - - - - - S 33 39 18 21 - - -
07/05:00pm - - - - - S 33 39 18 21 - - -
07/04:30pm - - - - - S 32 37 17 20 - - -
07/04:00pm - - - - - S 30 37 16 20 - - -
07/03:30pm - - - - - S 28 32 15 17 - - -
07/03:00pm - - - - - S 20 24 11 13 - - -
07/02:30pm - - - - - S 13 17 7 9 - - -
07/02:00pm - - - - - SE 6 9 3 5 - - -
07/01:30pm - - - - - SSE 11 15 6 8 - - -
07/01:00pm - - - - - S 11 13 6 7 - - -
07/12:30pm - - - - - SSE 11 15 6 8 - - -
07/12:00pm - - - - - SSE 11 13 6 7 - - -
07/11:30am - - - - - S 11 15 6 8 - - -
07/11:00am - - - - - SSW 13 17 7 9 - - -
07/10:30am - - - - - SW 19 24 10 13 - - -
07/10:00am - - - - - SW 17 24 9 13 - - -
07/09:30am - - - - - SW 24 32 13 17 - - -
07/09:00am - - - - - WSW 30 35 16 19 - - -
07/08:30am - - - - - WSW 20 28 11 15 - - -
07/08:00am - - - - - WSW 24 30 13 16 - - -
07/07:30am - - - - - WSW 24 32 13 17 - - -
07/07:00am - - - - - WSW 28 39 15 21 - - -
07/06:30am - - - - - WSW 22 28 12 15 - - -
07/06:00am - - - - - W 20 28 11 15 - - -
07/05:30am - - - - - W 20 26 11 14 - - -
07/05:00am - - - - - W 26 33 14 18 - - -
07/04:30am - - - - - W 24 33 13 18 - - -
07/04:00am - - - - - W 28 32 15 17 - - -
07/03:30am - - - - - W 24 30 13 16 - - -
07/03:00am - - - - - W 22 28 12 15 - - -
07/02:30am - - - - - W 24 32 13 17 - - -
07/02:00am - - - - - WSW 32 39 17 21 - - -
07/01:30am - - - - - WSW 28 35 15 19 - - -
07/01:00am - - - - - WSW 30 35 16 19 - - -
07/12:30am - - - - - WSW 30 37 16 20 - - -
07/12:00am - - - - - WSW 32 39 17 21 - - -
 
Date/Time
EDT
Temp
°C
App
Temp
°C
Dew
Point
°C
Rel
Hum
%
Delta-T
°C
Wind Press
QNH
hPa
Press
MSL
hPa
Rain since
9am
mm
Dir  Spd
km/h
Gust
km/h
Spd
kts
Gust
kts
06/11:30pm - - - - - WSW 35 44 19 24 - - -
06/11:00pm - - - - - SW 37 44 20 24 - - -
06/10:30pm - - - - - SW 39 48 21 26 - - -
06/10:00pm - - - - - WSW 39 46 21 25 - - -
06/09:30pm - - - - - WSW 41 46 22 25 - - -
06/09:00pm - - - - - SW 43 48 23 26 - - -
06/08:30pm - - - - - SW 43 50 23 27 - - -
06/08:00pm - - - - - SW 37 46 20 25 - - -
06/07:30pm - - - - - SW 39 48 21 26 - - -
06/07:11pm - - - - - SSW 32 48 17 26 - - -
06/07:00pm - - - - - S 28 35 15 19 - - -
06/06:30pm - - - - - S 32 39 17 21 - - -
06/06:00pm - - - - - S 30 33 16 18 - - -
06/05:30pm - - - - - SW 35 44 19 24 - - -
06/05:00pm - - - - - S 24 28 13 15 - - -
06/04:30pm - - - - - S 28 32 15 17 - - -
06/04:00pm - - - - - SW 35 43 19 23 - - -
06/03:30pm - - - - - SW 39 46 21 25 - - -
06/03:00pm - - - - - SW 32 41 17 22 - - -
06/02:30pm - - - - - WSW 35 46 19 25 - - -
06/02:22pm - - - - - WSW 37 48 20 26 - - -
06/02:00pm - - - - - SW 37 46 20 25 - - -
06/01:30pm - - - - - WSW 39 48 21 26 - - -
06/01:26pm - - - - - WSW 35 48 19 26 - - -
06/01:00pm - - - - - SW 24 30 13 16 - - -
06/12:30pm - - - - - SW 26 32 14 17 - - -
06/12:00pm - - - - - WSW 24 30 13 16 - - -
06/11:30am - - - - - WSW 26 33 14 18 - - -
06/11:00am - - - - - WSW 28 33 15 18 - - -
06/10:30am - - - - - WSW 26 35 14 19 - - -
06/10:00am - - - - - WSW 33 43 18 23 - - -
06/09:30am - - - - - WSW 20 30 11 16 - - -
06/09:00am - - - - - W 32 41 17 22 - - -
06/08:30am - - - - - W 22 30 12 16 - - -
06/08:00am - - - - - WSW 26 32 14 17 - - -
06/07:30am - - - - - W 24 32 13 17 - - -
06/07:00am - - - - - W 26 33 14 18 - - -
06/06:30am - - - - - WSW 30 37 16 20 - - -
06/06:00am - - - - - WSW 32 41 17 22 - - -

Other formats

Comma delimited format used in spreadsheet applications
http://www.bom.gov.au/fwo/IDV60801/IDV60801.95864.axf

JavaScript Object Notation format (JSON) in row-major order
http://www.bom.gov.au/fwo/IDV60801/IDV60801.95864.json

Data quality

Most of these data are generated automatically and are frequently updated. Quality checks on data are not normally performed. It is possible for incorrect values to appear. Refer to information at About Latest Weather Observations and please check the disclaimer before using these data.